Air Resources Laboratory banner image
Air Resources Laboratory web site National Oceanic and Atmospheric Administration (NOAA)

mi metar


KACB 191255Z AUTO 00000KT 10SM OVC008 20/18 A3002 RMK AO2 T01990180=
KADG 191253Z AUTO 07003KT 4SM BR OVC045 21/19 A3003 RMK AO2 SLP167 T02060194
 TSNO=
KAMN 191255Z AUTO 19005KT M1/4SM FG OVC002 19/19 A3003 RMK AO2 T01860186=
KANJ 191255Z AUTO 00000KT 10SM CLR 17/16 A3002 RMK AO2 SLP161 T01720161=
KAPN 191254Z AUTO 00000KT 10SM OVC022 20/18 A3004 RMK AO2 SLP171 T02000183=
KARB 191253Z 06003KT 9SM BKN047 22/20 A3002 RMK AO2 SLP162 T02170200 PNO $=
KAZO 191253Z 00000KT 5SM BR CLR 19/19 A3002 RMK AO2 SLP161 T01940189=
KBAX 191255Z AUTO 00000KT 7SM CLR 20/19 A3003 RMK AO2 T01950187=
KBEH 191253Z AUTO 00000KT 3SM BR BKN001 19/19 A2999 RMK AO2 SLP153 T01940189=
KBIV 191253Z AUTO 15003KT M1/4SM FG VV001 19/18 A3001 RMK AO2 SLP159 T01890183=
KBTL 191253Z 00000KT 3/4SM R23R/1800VP6000FT BR VV002 19/19 A3003 RMK AO2
 SLP163 T01940189 $=
KCAD 191255Z AUTO 18003KT 10SM OVC006 19/18 A3003 RMK AO2 T01950185=
KCIU 191256Z AUTO 13004KT 10SM CLR 18/17 A3002 RMK AO2 SLP187 T01780167=
KCMX 191253Z AUTO 00000KT 10SM CLR 18/14 A2997 RMK AO2 SLP149 T01780144 $=
KDET 191253Z 00000KT 10SM CLR 23/19 A3003 RMK AO2 SLP164 T02280189 $=
KDTW 191253Z 10004KT 7SM FEW040 FEW120 22/18 A3003 RMK AO2 SLP164 T02220183=
KERY 191255Z AUTO 00000KT 10SM CLR 16/15 A3001 RMK AO2 T01560151=
KESC 191256Z AUTO 00000KT 10SM CLR 14/12 A3000 RMK AO2 SLP180 T01440122=
KFNT 191253Z 00000KT 1 1/2SM BR OVC002 20/19 A3003 RMK AO2 SLP167 T02000189 $=
KGLR 191253Z AUTO 20006KT 1SM BR OVC002 18/18 A3004 RMK AO2 SLP167 T01780178=
KGRR 191253Z 12006KT 1/4SM R26L/1600V3500FT FG VV002 19/19 A3001 RMK AO2 SLP158
 T01940194=
KHTL 191326Z AUTO 14004KT 1 1/4SM BR OVC002 18/18 A3005 RMK AO2 T01830178=
KIMT 191254Z AUTO 00000KT 6SM BR CLR 16/14 A3002 RMK AO2 SLP165 T01560139=
KIRS 191255Z AUTO 13004KT 10SM SCT022 21/18 A3001 RMK AO2 T02120184=
KISQ 191255Z AUTO 32003KT 10SM CLR 15/14 A3002 RMK AO2 T01500141=
KIWD 191256Z AUTO 19005KT 7SM CLR 17/16 A2998 RMK AO2 SLP152 T01720156 PNO $=
KJXN 191256Z 00000KT 10SM BKN039 20/19 A3003 RMK AO2 SLP164 T02000194=
KJYM 191255Z AUTO 00000KT 4SM BR SCT100 SCT120 20/19 A3003 RMK AO2=
KLAN 191253Z 13004KT 6SM BR CLR 21/19 A3003 RMK AO2 SLP165 T02060194=
KLDM 191255Z AUTO 19003KT 3SM BR OVC002 20/19 A3001 RMK AO2 T01950190=
KMBL 191256Z AUTO 19003KT 1 3/4SM BR OVC002 19/19 A3001 RMK AO2 SLP176
 T01890189=
KMBS 191253Z 00000KT 1/4SM R23/1600V1800FT FG VV002 20/20 A3003 RMK AO2 TWR VIS
 1/4 SLP167 T02000200=
KMCD 191255Z AUTO 16006KT 2 1/2SM BR OVC002 18/18 A3002 RMK AO2 T01810176=
KMKG 191255Z 11004KT 1/4SM R32/1600V1800FT FG VV002 19/18 A3001 RMK AO2 SLP160
 T01890178 $=
KMNM 191256Z AUTO 00000KT 10SM CLR 16/14 A3002 RMK AO2 SLP181 T01560144 $=
KMOP 191255Z AUTO 00000KT 1 1/2SM BR OVC003 19/18 A3003 RMK AO2 T01860183=
KMTC 191256Z 09004KT 10SM BKN023 22/22 A3002 RMK AO2A SLP169 ALSTG/SLP ESTMD
 T02170217 $=
KONZ 191255Z AUTO 00000KT 10SM SCT100 22/19 A3001 RMK AO2 T02170189=
KOSC 191255Z AUTO 00000KT 7SM SCT014 19/19 A3003 RMK AO2 T01860186=
KOZW 191255Z AUTO 16003KT 7SM SCT032 BKN041 OVC048 21/20 A3003 RMK AO2
 T02100198=
KP58 191251Z AUTO 17003KT 23/20 A3001 RMK AO1 SLP156 T02280200=
KP59 191251Z AUTO VRB03KT 19/14 A2996 RMK AO1 SLP141 T01890144=
KPHN 191255Z AUTO 00000KT 10SM CLR 19/19 A3004 RMK AO2=
KPLN 191254Z AUTO 16006KT M1/4SM FG VV001 17/17 A3002 RMK AO2 SLP163 T01720172=
KPTK 191253Z 11005KT 7SM FEW010 SCT021 BKN100 21/20 A3003 RMK AO2 SLP163
 T02110200 $=
KRMY 191255Z AUTO 00000KT M1/4SM FG OVC002 18/18 A3003 RMK AO2 T01840175=
KRQB 191255Z AUTO 18006KT 10SM OVC007 20/18 A3001 RMK AO2 T02030182=
KSAW 191246Z 21004KT 10SM SKC 13/11 A3001=
KTEW 191255Z AUTO 00000KT 4SM BR BKN036 OVC045 20/19 A3004 RMK AO2 T02030188=
KTTF 191255Z AUTO 05003KT 10SM SCT025 21/20 A3001 RMK AO2 T02110200=
KTVC 191253Z 00000KT 10SM BKN009 BKN022 BKN050 21/19 A3000 RMK AO2 SLP156
 T02110189=
KYIP 191253Z 10004KT 10SM FEW042 23/20 A3003 RMK AO2 SLP162 T02330200 $=